Time;durP1;ratioP1;P1;durP2;ratioP2;P2;SDS_P1;SDS_P2;PMS_P1;PMS_P2;Temp;Humidity;BMP_temperature;BMP_pressure;BME280_temperature;BME280_humidity;BME280_pressure;Samples;Min_cycle;Max_cycle;Signal;HPM_P1;HPM_P2
2023/05/21 00:01:54;;;;;;;4.17;3.20;;;15.00;99.90;;;;;;5050262;28;20200;-62
2023/05/21 00:04:21;;;;;;;4.07;2.90;;;14.90;99.90;;;;;;5045951;28;20203;-59
2023/05/21 00:06:49;;;;;;;5.17;3.40;;;14.80;99.90;;;;;;5048339;28;20861;-60
2023/05/21 00:09:16;;;;;;;3.37;2.87;;;14.80;99.90;;;;;;5045664;28;20251;-61
2023/05/21 00:11:43;;;;;;;3.20;2.90;;;14.80;99.90;;;;;;5046299;28;20202;-60
2023/05/21 00:14:10;;;;;;;5.10;2.63;;;14.80;99.90;;;;;;5047362;28;20642;-60
2023/05/21 00:16:37;;;;;;;7.40;4.00;;;14.80;99.90;;;;;;5049891;28;20207;-61
2023/05/21 00:19:05;;;;;;;3.63;3.30;;;14.80;99.90;;;;;;5047236;28;20712;-60
2023/05/21 00:21:32;;;;;;;5.10;4.00;;;14.90;99.90;;;;;;5046627;28;20207;-60
2023/05/21 00:23:59;;;;;;;3.50;3.20;;;15.10;99.90;;;;;;5048952;28;20219;-60
2023/05/21 00:26:26;;;;;;;5.23;3.40;;;14.90;99.90;;;;;;5041630;28;20223;-60
2023/05/21 00:28:52;;;;;;;6.33;4.50;;;15.10;99.90;;;;;;5040694;28;20204;-60
2023/05/21 00:31:20;;;;;;;3.33;3.03;;;15.10;99.90;;;;;;5042357;28;20206;-61
2023/05/21 00:33:47;;;;;;;3.87;2.93;;;15.00;99.90;;;;;;5062786;28;20606;-60
2023/05/21 00:36:14;;;;;;;3.70;3.27;;;14.90;99.90;;;;;;5042811;28;21081;-61
2023/05/21 00:38:42;;;;;;;3.30;2.73;;;14.90;99.90;;;;;;5048690;28;20309;-60
2023/05/21 00:41:10;;;;;;;3.87;3.00;;;14.90;99.90;;;;;;5048805;28;20576;-60
2023/05/21 00:43:40;;;;;;;3.60;3.10;;;14.90;99.90;;;;;;5044764;28;20211;-61
2023/05/21 00:46:12;;;;;;;4.40;2.83;;;15.00;99.90;;;;;;5047364;28;20209;-60
2023/05/21 00:48:39;;;;;;;3.33;2.87;;;15.10;99.90;;;;;;5048803;28;20202;-60
2023/05/21 00:51:06;;;;;;;4.70;3.30;;;15.00;99.90;;;;;;5047242;28;20213;-60
2023/05/21 00:53:34;;;;;;;7.57;2.77;;;15.00;99.90;;;;;;5039290;28;20664;-60
2023/05/21 00:56:02;;;;;;;6.50;4.03;;;15.00;99.90;;;;;;5046623;28;20245;-62
2023/05/21 00:58:32;;;;;;;4.17;3.33;;;15.10;99.90;;;;;;5048278;28;20302;-62
2023/05/21 01:01:05;;;;;;;5.60;3.20;;;15.20;99.90;;;;;;5049490;28;20323;-60
2023/05/21 01:03:37;;;;;;;4.90;3.30;;;15.10;99.90;;;;;;5044355;28;20198;-60
2023/05/21 01:06:06;;;;;;;3.73;3.37;;;15.00;99.90;;;;;;5042475;28;20275;-60
2023/05/21 01:08:36;;;;;;;3.90;3.33;;;15.10;99.90;;;;;;5047499;28;20601;-60
2023/05/21 01:11:05;;;;;;;4.90;3.27;;;15.10;99.90;;;;;;5055551;28;20626;-60
2023/05/21 01:13:36;;;;;;;2.90;2.60;;;15.00;99.90;;;;;;5045136;28;20197;-61
2023/05/21 01:16:05;;;;;;;3.27;2.83;;;15.00;99.90;;;;;;5046418;28;20209;-60
2023/05/21 01:18:36;;;;;;;3.93;3.53;;;15.00;99.90;;;;;;5046710;28;20232;-62
2023/05/21 01:21:06;;;;;;;4.27;3.13;;;15.10;99.90;;;;;;5046288;28;20215;-65
2023/05/21 01:23:33;;;;;;;3.43;3.13;;;15.10;99.90;;;;;;5047131;28;20265;-60
2023/05/21 01:26:00;;;;;;;3.03;2.73;;;14.90;99.90;;;;;;5046769;28;20297;-61
2023/05/21 01:28:28;;;;;;;3.57;2.97;;;15.00;99.90;;;;;;5050972;28;20222;-61
2023/05/21 01:30:59;;;;;;;2.97;2.67;;;15.00;99.90;;;;;;5044618;28;20651;-61
2023/05/21 01:33:32;;;;;;;4.07;3.33;;;15.10;99.90;;;;;;5039028;28;20585;-60
2023/05/21 01:36:08;;;;;;;4.67;3.10;;;15.10;99.90;;;;;;5040425;28;20333;-61
2023/05/21 01:38:47;;;;;;;3.50;3.20;;;14.90;99.90;;;;;;5037106;28;20206;-60
2023/05/21 01:41:16;;;;;;;3.67;3.23;;;14.90;99.90;;;;;;5046191;28;20297;-61
2023/05/21 01:43:45;;;;;;;4.00;3.00;;;14.90;99.90;;;;;;5043589;28;20316;-60
2023/05/21 01:46:16;;;;;;;3.30;3.00;;;14.80;99.90;;;;;;5044547;28;20228;-61
2023/05/21 01:48:44;;;;;;;5.83;3.27;;;14.80;99.90;;;;;;5044092;28;20241;-61
2023/05/21 01:51:11;;;;;;;4.03;3.27;;;14.80;99.90;;;;;;5053304;28;20569;-61
2023/05/21 01:53:39;;;;;;;3.57;3.13;;;14.70;99.90;;;;;;5045668;28;20205;-60
2023/05/21 01:56:06;;;;;;;4.20;3.10;;;14.70;99.90;;;;;;5048552;28;20210;-60
2023/05/21 01:58:33;;;;;;;3.33;2.93;;;14.70;99.90;;;;;;5044036;28;20209;-60
2023/05/21 02:01:01;;;;;;;3.40;3.10;;;14.70;99.90;;;;;;5047155;28;20201;-60
2023/05/21 02:03:29;;;;;;;4.43;3.50;;;14.60;99.90;;;;;;5045052;28;20211;-60
2023/05/21 02:05:57;;;;;;;4.60;3.37;;;14.50;99.90;;;;;;5044315;28;20217;-61
2023/05/21 02:08:24;;;;;;;4.50;3.73;;;14.50;99.90;;;;;;5042943;28;20215;-60
2023/05/21 02:10:51;;;;;;;3.47;3.17;;;14.50;99.90;;;;;;5046057;28;20214;-60
2023/05/21 02:13:19;;;;;;;6.10;3.80;;;14.60;99.90;;;;;;5044987;28;20289;-62
2023/05/21 02:15:48;;;;;;;3.80;3.07;;;14.60;99.90;;;;;;5046149;28;20207;-60
2023/05/21 02:18:15;;;;;;;4.43;3.53;;;14.70;99.90;;;;;;5046551;28;20232;-61
2023/05/21 02:20:42;;;;;;;3.77;3.40;;;14.60;99.90;;;;;;5047599;28;20232;-61
2023/05/21 02:23:09;;;;;;;4.03;3.53;;;14.60;99.90;;;;;;5043630;28;20208;-61
2023/05/21 02:25:36;;;;;;;5.03;3.53;;;14.60;99.90;;;;;;5042808;28;20200;-60
2023/05/21 02:28:05;;;;;;;3.50;3.20;;;14.60;99.90;;;;;;5039385;28;20695;-61
2023/05/21 02:30:32;;;;;;;3.73;3.43;;;14.70;99.90;;;;;;5035815;28;20200;-59
2023/05/21 02:32:59;;;;;;;4.83;3.80;;;14.70;99.90;;;;;;5038952;28;20320;-67
2023/05/21 02:35:26;;;;;;;3.77;3.30;;;14.70;99.90;;;;;;5038073;28;20229;-61
2023/05/21 02:37:57;;;;;;;6.10;3.77;;;14.70;99.90;;;;;;5037277;28;20224;-61
2023/05/21 02:40:25;;;;;;;4.23;3.83;;;14.70;99.90;;;;;;5036198;28;20210;-60
2023/05/21 02:42:52;;;;;;;4.77;3.70;;;14.70;99.90;;;;;;5040097;28;20728;-60
2023/05/21 02:45:19;;;;;;;4.40;3.60;;;14.70;99.90;;;;;;5037621;28;20654;-60
2023/05/21 02:47:46;;;;;;;3.60;3.30;;;14.80;99.90;;;;;;5038901;28;20297;-61
2023/05/21 02:50:13;;;;;;;4.20;3.80;;;14.80;99.90;;;;;;5041006;28;20301;-60
2023/05/21 02:52:40;;;;;;;4.53;3.53;;;14.80;99.90;;;;;;5040000;28;20658;-61
2023/05/21 02:55:08;;;;;;;5.23;3.53;;;14.70;99.90;;;;;;5035641;28;20203;-61
2023/05/21 02:57:35;;;;;;;5.77;4.13;;;14.80;99.90;;;;;;5035706;28;20619;-62
2023/05/21 03:00:04;;;;;;;4.60;3.73;;;14.80;99.90;;;;;;5038315;28;20210;-61
2023/05/21 03:02:32;;;;;;;5.33;3.73;;;14.80;99.90;;;;;;5038054;28;20628;-62
2023/05/21 03:04:59;;;;;;;4.30;3.60;;;14.70;99.90;;;;;;5039302;28;20579;-61
2023/05/21 03:07:26;;;;;;;5.13;3.70;;;14.70;99.90;;;;;;5041616;28;20207;-61
2023/05/21 03:09:53;;;;;;;5.17;3.30;;;14.70;99.90;;;;;;5037602;28;20210;-61
2023/05/21 03:12:20;;;;;;;4.00;3.30;;;14.70;99.90;;;;;;5037620;28;20204;-61
2023/05/21 03:14:50;;;;;;;3.93;3.53;;;14.80;99.90;;;;;;5036774;28;20224;-61
2023/05/21 03:17:17;;;;;;;6.13;3.60;;;14.70;99.90;;;;;;5042600;28;20667;-61
2023/05/21 03:19:44;;;;;;;5.67;3.37;;;14.70;99.90;;;;;;5040072;28;20206;-61
2023/05/21 03:22:11;;;;;;;5.50;4.10;;;14.60;99.90;;;;;;5041418;28;20211;-61
2023/05/21 03:24:38;;;;;;;5.97;3.70;;;14.80;99.90;;;;;;5037189;28;20214;-61
2023/05/21 03:27:06;;;;;;;7.00;3.70;;;14.70;99.90;;;;;;5037920;28;22217;-61
2023/05/21 03:29:33;;;;;;;4.47;3.30;;;14.60;99.90;;;;;;5035266;28;20211;-62
2023/05/21 03:32:01;;;;;;;5.73;4.10;;;14.70;99.90;;;;;;5037491;28;20222;-61
2023/05/21 03:34:28;;;;;;;4.17;3.40;;;14.60;99.90;;;;;;5033988;28;20654;-61
2023/05/21 03:36:54;;;;;;;8.13;4.80;;;14.60;99.90;;;;;;5039044;28;20865;-61
2023/05/21 03:39:21;;;;;;;4.07;3.57;;;14.60;99.90;;;;;;5037622;28;20286;-61
2023/05/21 03:41:48;;;;;;;4.63;3.77;;;14.50;99.90;;;;;;5038991;28;20198;-61
2023/05/21 03:44:15;;;;;;;4.10;3.80;;;14.40;99.90;;;;;;5039641;28;20202;-61
2023/05/21 03:46:44;;;;;;;4.60;3.80;;;14.40;99.90;;;;;;5036862;28;20725;-61
2023/05/21 03:49:11;;;;;;;5.07;4.03;;;14.40;99.90;;;;;;5037673;28;20831;-61
2023/05/21 03:51:38;;;;;;;5.00;4.40;;;14.40;99.90;;;;;;5037290;28;20272;-62
2023/05/21 03:54:05;;;;;;;4.53;3.77;;;14.40;99.90;;;;;;5041213;28;21026;-61
2023/05/21 03:56:32;;;;;;;6.70;4.80;;;14.40;99.90;;;;;;5038487;28;20201;-61
2023/05/21 03:58:59;;;;;;;5.33;4.73;;;14.40;99.90;;;;;;5039371;28;20722;-62
2023/05/21 04:01:27;;;;;;;5.83;4.00;;;14.40;99.90;;;;;;5042164;28;20210;-61
2023/05/21 04:03:54;;;;;;;4.33;3.80;;;14.50;99.90;;;;;;5039220;28;20283;-62
2023/05/21 04:06:21;;;;;;;6.27;4.30;;;14.50;99.90;;;;;;5040627;28;20602;-61
2023/05/21 04:08:48;;;;;;;5.03;3.87;;;14.40;99.90;;;;;;5055189;28;20274;-62
2023/05/21 04:11:15;;;;;;;5.33;4.67;;;14.40;99.90;;;;;;5040368;28;20194;-62
2023/05/21 04:13:42;;;;;;;5.30;4.23;;;14.40;99.90;;;;;;5039325;28;20206;-61
2023/05/21 04:16:09;;;;;;;4.87;4.03;;;14.40;99.90;;;;;;5038374;28;20672;-62
2023/05/21 04:18:36;;;;;;;5.77;4.33;;;14.40;99.90;;;;;;5041364;28;20735;-62
2023/05/21 04:21:03;;;;;;;6.03;4.63;;;14.50;99.90;;;;;;5038418;28;20213;-62
2023/05/21 04:23:30;;;;;;;5.00;4.37;;;14.50;99.90;;;;;;5035338;28;20285;-62
2023/05/21 04:25:57;;;;;;;6.10;4.53;;;14.60;99.90;;;;;;5025237;28;20246;-61
2023/05/21 04:28:27;;;;;;;4.80;4.30;;;14.50;99.90;;;;;;5040428;28;20696;-61
2023/05/21 04:30:55;;;;;;;5.50;4.60;;;14.50;99.90;;;;;;5045037;28;20204;-61
2023/05/21 04:33:23;;;;;;;4.77;4.13;;;14.40;99.90;;;;;;5035837;28;20230;-61
2023/05/21 04:35:50;;;;;;;4.67;3.80;;;14.40;99.90;;;;;;5046309;28;20624;-61
2023/05/21 04:38:18;;;;;;;7.10;4.40;;;14.40;99.90;;;;;;5047355;28;20200;-61
2023/05/21 04:40:51;;;;;;;5.30;4.50;;;14.40;99.90;;;;;;5048023;28;20203;-62
2023/05/21 04:43:24;;;;;;;5.07;4.30;;;14.40;99.90;;;;;;5047990;28;20233;-61
2023/05/21 04:45:53;;;;;;;5.97;4.50;;;14.40;99.90;;;;;;5050229;28;20241;-61
2023/05/21 04:48:25;;;;;;;7.30;4.30;;;14.40;99.90;;;;;;5050425;28;20217;-61
2023/05/21 04:50:53;;;;;;;5.13;4.40;;;14.30;99.90;;;;;;5049905;28;20205;-61
2023/05/21 04:53:21;;;;;;;5.53;4.70;;;14.40;99.90;;;;;;5048158;28;20204;-61
2023/05/21 04:55:48;;;;;;;4.40;4.00;;;14.40;99.90;;;;;;5049797;28;20195;-62
2023/05/21 04:58:17;;;;;;;9.00;4.93;;;14.40;99.90;;;;;;5047931;28;20231;-62
2023/05/21 05:00:50;;;;;;;5.33;4.80;;;14.40;99.90;;;;;;5050135;28;20243;-61
2023/05/21 05:03:17;;;;;;;5.50;4.40;;;14.40;99.90;;;;;;5048425;28;20210;-62
2023/05/21 05:05:45;;;;;;;6.67;4.73;;;14.40;99.90;;;;;;5050241;28;20210;-61
2023/05/21 05:08:11;;;;;;;6.40;4.47;;;14.40;99.90;;;;;;5047160;28;20223;-62
2023/05/21 05:10:41;;;;;;;4.97;4.10;;;14.40;99.90;;;;;;5045689;28;20294;-61
2023/05/21 05:13:08;;;;;;;5.90;4.70;;;14.50;99.90;;;;;;5044535;28;20293;-62
2023/05/21 05:15:35;;;;;;;6.03;4.60;;;14.50;99.90;;;;;;5047654;28;20292;-61
2023/05/21 05:18:03;;;;;;;6.07;4.50;;;14.50;99.90;;;;;;5048498;28;20325;-61
2023/05/21 05:20:30;;;;;;;6.80;4.37;;;14.50;99.90;;;;;;5047958;28;20214;-61
2023/05/21 05:22:57;;;;;;;7.47;4.97;;;14.50;99.90;;;;;;5046673;28;20215;-61
2023/05/21 05:25:24;;;;;;;5.73;4.43;;;14.40;99.90;;;;;;5047639;28;20204;-61
2023/05/21 05:27:50;;;;;;;5.10;4.60;;;14.40;99.90;;;;;;5044507;28;20223;-61
2023/05/21 05:30:17;;;;;;;6.30;4.80;;;14.40;99.90;;;;;;5045652;28;20210;-63
2023/05/21 05:32:45;;;;;;;7.33;5.70;;;14.40;99.90;;;;;;5046981;28;20579;-62
2023/05/21 05:35:12;;;;;;;5.73;5.17;;;14.50;99.90;;;;;;5044446;28;20681;-62
2023/05/21 05:37:39;;;;;;;5.10;4.47;;;14.50;99.90;;;;;;5045065;28;20209;-61
2023/05/21 05:40:06;;;;;;;7.40;4.80;;;14.50;99.90;;;;;;5044856;28;20205;-62
2023/05/21 05:42:33;;;;;;;6.13;4.60;;;14.50;99.90;;;;;;5046673;28;20203;-62
2023/05/21 05:45:00;;;;;;;6.37;4.87;;;14.50;99.90;;;;;;5047608;28;20213;-61
2023/05/21 05:47:27;;;;;;;5.63;4.80;;;14.60;99.90;;;;;;5046906;28;20216;-61
2023/05/21 05:49:54;;;;;;;5.03;4.57;;;14.50;99.90;;;;;;5051637;28;20229;-61
2023/05/21 05:52:21;;;;;;;6.67;4.77;;;14.60;99.90;;;;;;5046273;28;20198;-61
2023/05/21 05:54:48;;;;;;;5.03;4.53;;;14.60;99.90;;;;;;5045225;28;20213;-61
2023/05/21 05:57:15;;;;;;;6.00;5.40;;;14.60;99.90;;;;;;5045729;28;20573;-61
2023/05/21 05:59:42;;;;;;;5.63;4.53;;;14.60;99.90;;;;;;5048348;28;20210;-61
2023/05/21 06:02:09;;;;;;;6.77;4.97;;;14.70;99.90;;;;;;5037908;28;20292;-61
2023/05/21 06:04:36;;;;;;;6.50;5.37;;;14.60;99.90;;;;;;5046576;28;20778;-61
2023/05/21 06:07:03;;;;;;;6.90;4.87;;;14.60;99.90;;;;;;5042838;28;20214;-61
2023/05/21 06:09:30;;;;;;;8.03;5.70;;;14.70;99.90;;;;;;5044387;28;20246;-61
2023/05/21 06:11:57;;;;;;;5.87;5.27;;;14.60;99.90;;;;;;5044235;28;20210;-61
2023/05/21 06:14:24;;;;;;;6.43;5.07;;;14.70;99.90;;;;;;5046495;28;20199;-62
2023/05/21 06:16:51;;;;;;;7.03;5.30;;;14.60;99.90;;;;;;5045234;28;20257;-62
2023/05/21 06:19:18;;;;;;;5.70;5.20;;;14.80;99.90;;;;;;5045773;28;20228;-64
2023/05/21 06:21:45;;;;;;;6.90;5.47;;;14.80;99.90;;;;;;5044008;28;20643;-61
2023/05/21 06:24:12;;;;;;;6.80;5.43;;;14.80;99.90;;;;;;5038126;28;20247;-62
2023/05/21 06:26:39;;;;;;;6.07;5.07;;;14.80;99.90;;;;;;5043531;28;20299;-62
2023/05/21 06:29:06;;;;;;;6.63;5.17;;;14.80;99.90;;;;;;5061011;28;20222;-61
2023/05/21 06:31:34;;;;;;;8.40;6.13;;;15.00;99.90;;;;;;5046477;28;20286;-61
2023/05/21 06:34:01;;;;;;;6.87;5.10;;;14.90;99.90;;;;;;5046399;28;20397;-61
2023/05/21 06:36:28;;;;;;;6.00;5.40;;;15.00;99.90;;;;;;5041049;28;20199;-61
2023/05/21 06:38:56;;;;;;;5.63;5.07;;;15.10;99.90;;;;;;5044913;28;20209;-60
2023/05/21 06:41:23;;;;;;;6.83;5.30;;;15.10;99.90;;;;;;5041964;28;20210;-60
2023/05/21 06:43:50;;;;;;;7.63;5.30;;;15.10;99.90;;;;;;5041889;28;20212;-60
2023/05/21 06:46:17;;;;;;;6.60;5.90;;;15.10;99.90;;;;;;5045785;28;20208;-62
2023/05/21 06:48:45;;;;;;;7.03;5.83;;;15.10;99.90;;;;;;5045890;28;20906;-60
2023/05/21 06:51:12;;;;;;;6.30;5.47;;;15.10;99.90;;;;;;5045759;28;20202;-61
2023/05/21 06:53:39;;;;;;;8.60;5.67;;;15.10;99.90;;;;;;5044253;28;20197;-61
2023/05/21 06:56:06;;;;;;;6.23;5.63;;;15.30;99.90;;;;;;5037492;28;20205;-62
2023/05/21 06:58:33;;;;;;;6.53;5.80;;;15.40;99.90;;;;;;5040748;28;20280;-66
2023/05/21 07:01:00;;;;;;;7.37;5.37;;;15.40;99.90;;;;;;5040790;28;20206;-61
2023/05/21 07:03:27;;;;;;;7.53;5.77;;;15.30;99.90;;;;;;5037864;28;20213;-61
2023/05/21 07:05:56;;;;;;;8.20;5.70;;;15.50;99.90;;;;;;5041245;28;20779;-61
2023/05/21 07:08:23;;;;;;;8.23;5.40;;;15.40;99.90;;;;;;5033889;28;20241;-61
2023/05/21 07:10:50;;;;;;;6.00;5.40;;;15.40;99.90;;;;;;5042753;28;20197;-61
2023/05/21 07:13:17;;;;;;;6.93;5.40;;;15.60;99.90;;;;;;5041814;28;20202;-61
2023/05/21 07:15:44;;;;;;;5.90;5.30;;;15.60;99.90;;;;;;5042010;28;20201;-61
2023/05/21 07:18:11;;;;;;;6.90;5.90;;;15.60;99.90;;;;;;5044176;28;21216;-61
2023/05/21 07:20:39;;;;;;;5.77;5.17;;;15.70;99.90;;;;;;5042004;28;20248;-61
2023/05/21 07:23:06;;;;;;;8.53;5.80;;;15.60;99.90;;;;;;5037646;28;20222;-61
2023/05/21 07:25:33;;;;;;;6.57;5.73;;;15.50;99.90;;;;;;5041808;28;20202;-61
2023/05/21 07:28:00;;;;;;;9.10;5.50;;;15.60;99.90;;;;;;5039979;28;20211;-61
2023/05/21 07:30:27;;;;;;;6.60;5.27;;;15.70;99.90;;;;;;5043226;28;20212;-61
2023/05/21 07:32:54;;;;;;;6.07;5.43;;;15.90;99.90;;;;;;5040754;28;20266;-61
2023/05/21 07:35:21;;;;;;;8.13;5.90;;;15.90;99.90;;;;;;5046432;28;20523;-61
2023/05/21 07:37:48;;;;;;;6.33;5.37;;;16.00;99.90;;;;;;5044029;28;20204;-61
2023/05/21 07:40:15;;;;;;;8.20;6.43;;;16.00;99.90;;;;;;5045613;28;20662;-61
2023/05/21 07:42:42;;;;;;;7.40;6.33;;;16.00;99.90;;;;;;5043548;28;20207;-61
2023/05/21 07:45:09;;;;;;;7.57;6.10;;;16.10;99.90;;;;;;5040298;28;20292;-61
2023/05/21 07:47:36;;;;;;;5.77;5.17;;;16.20;99.90;;;;;;5041282;28;20214;-61
2023/05/21 07:50:04;;;;;;;7.33;5.43;;;16.20;99.90;;;;;;5046787;28;20251;-61
2023/05/21 07:52:31;;;;;;;7.50;6.00;;;16.20;99.90;;;;;;5041978;28;20210;-61
2023/05/21 07:54:59;;;;;;;6.97;5.73;;;16.20;99.90;;;;;;5045731;28;20293;-61
2023/05/21 07:57:26;;;;;;;8.30;5.90;;;16.50;99.90;;;;;;4679400;28;10000506;-61
2023/05/21 07:59:53;;;;;;;6.77;6.07;;;16.40;99.90;;;;;;5035543;28;20212;-61
2023/05/21 08:02:20;;;;;;;7.33;6.00;;;16.50;99.90;;;;;;5036874;28;20223;-61
2023/05/21 08:04:47;;;;;;;7.40;6.10;;;16.70;99.90;;;;;;5034423;28;20833;-61
2023/05/21 08:07:18;;;;;;;6.10;5.50;;;16.90;99.90;;;;;;5037864;28;20200;-61
2023/05/21 08:09:45;;;;;;;7.53;6.03;;;16.80;99.90;;;;;;5044637;28;20220;-61
2023/05/21 08:12:14;;;;;;;8.00;5.57;;;17.00;99.90;;;;;;5043040;28;20199;-62
2023/05/21 08:14:41;;;;;;;7.13;5.97;;;17.10;99.90;;;;;;5036416;28;20234;-61
2023/05/21 08:17:11;;;;;;;6.97;5.90;;;17.00;99.90;;;;;;5042207;28;20841;-61
2023/05/21 08:19:39;;;;;;;6.70;5.97;;;17.30;99.90;;;;;;5044891;28;20232;-61
2023/05/21 08:22:05;;;;;;;10.53;6.63;;;17.30;99.90;;;;;;5043837;28;20211;-61
2023/05/21 08:24:33;;;;;;;7.33;6.07;;;17.50;99.90;;;;;;5050606;28;20209;-63
2023/05/21 08:27:00;;;;;;;8.23;6.27;;;17.30;99.90;;;;;;5041110;28;20211;-61
2023/05/21 08:29:26;;;;;;;7.50;5.73;;;17.10;99.90;;;;;;5042585;28;20274;-63
2023/05/21 08:31:53;;;;;;;7.80;6.40;;;17.40;99.90;;;;;;5045148;28;20616;-64
2023/05/21 08:34:20;;;;;;;6.80;5.93;;;17.60;99.90;;;;;;5040940;28;20932;-65
2023/05/21 08:36:48;;;;;;;8.23;6.10;;;17.40;99.90;;;;;;5040137;28;20213;-64
2023/05/21 08:39:15;;;;;;;6.37;5.73;;;17.50;99.90;;;;;;5037626;28;20846;-64
2023/05/21 08:41:48;;;;;;;7.03;6.33;;;17.70;99.90;;;;;;5038678;28;20216;-62
2023/05/21 08:44:20;;;;;;;6.50;5.80;;;17.80;99.90;;;;;;5023561;28;20225;-62
2023/05/21 08:46:50;;;;;;;6.87;6.17;;;17.80;99.90;;;;;;5033951;28;20211;-62
2023/05/21 08:49:25;;;;;;;9.17;6.20;;;17.70;99.90;;;;;;5035993;28;20229;-62
2023/05/21 08:51:54;;;;;;;8.60;6.33;;;18.00;99.90;;;;;;5038643;28;20671;-62
2023/05/21 08:54:21;;;;;;;5.80;5.23;;;18.40;99.90;;;;;;5039686;28;20490;-64
2023/05/21 08:56:48;;;;;;;7.03;5.67;;;18.30;99.90;;;;;;5042207;28;20200;-63
2023/05/21 08:59:18;;;;;;;7.27;6.50;;;18.50;99.90;;;;;;5040867;28;20655;-63
2023/05/21 09:01:48;;;;;;;7.20;6.17;;;18.20;99.90;;;;;;5047251;28;20212;-63
2023/05/21 09:04:16;;;;;;;8.33;6.40;;;17.90;99.90;;;;;;5037591;28;20200;-63
2023/05/21 09:06:47;;;;;;;7.17;6.30;;;17.80;99.90;;;;;;5025796;28;20283;-62
2023/05/21 09:09:38;;;;;;;8.97;6.73;;;17.90;99.90;;;;;;5037718;28;20215;-61
2023/05/21 09:12:05;;;;;;;8.30;6.33;;;18.20;99.90;;;;;;5038430;28;20209;-62
2023/05/21 09:14:33;;;;;;;7.20;6.50;;;18.40;99.90;;;;;;5034642;28;20242;-61
2023/05/21 09:17:00;;;;;;;10.30;6.57;;;18.40;99.90;;;;;;5036094;28;21521;-60
2023/05/21 09:19:28;;;;;;;11.93;6.67;;;18.30;99.90;;;;;;5023876;28;20230;-60
2023/05/21 09:22:02;;;;;;;9.87;6.20;;;18.30;99.90;;;;;;5030571;28;20267;-61
2023/05/21 09:24:32;;;;;;;11.37;6.60;;;18.50;99.90;;;;;;5025164;28;20221;-61
2023/05/21 09:27:05;;;;;;;8.63;6.70;;;18.60;99.90;;;;;;5029896;28;20236;-61
2023/05/21 09:29:33;;;;;;;7.37;6.57;;;18.60;99.90;;;;;;5027829;28;20723;-61
2023/05/21 09:32:06;;;;;;;10.87;6.70;;;19.00;99.90;;;;;;5025260;28;20232;-61
2023/05/21 09:34:35;;;;;;;9.87;7.00;;;18.80;99.90;;;;;;5024381;28;20208;-61
2023/05/21 09:37:06;;;;;;;7.10;6.27;;;18.70;99.90;;;;;;5030660;28;20492;-62
2023/05/21 09:39:48;;;;;;;9.50;6.70;;;18.60;99.90;;;;;;5028227;28;20304;-61
2023/05/21 09:42:19;;;;;;;8.80;7.00;;;18.80;99.90;;;;;;5025777;28;20218;-61
2023/05/21 09:44:46;;;;;;;9.57;7.03;;;18.90;99.90;;;;;;5031256;28;20209;-61
2023/05/21 09:47:18;;;;;;;11.10;7.77;;;19.20;99.90;;;;;;5024654;28;20977;-63
2023/05/21 09:49:45;;;;;;;7.73;6.93;;;19.20;99.90;;;;;;5027669;28;20217;-61
2023/05/21 09:52:12;;;;;;;8.10;7.37;;;19.20;99.90;;;;;;5025648;28;20284;-61
2023/05/21 09:54:39;;;;;;;10.57;6.70;;;19.10;99.90;;;;;;5029372;28;20217;-62
2023/05/21 09:57:06;;;;;;;8.23;7.27;;;19.20;99.90;;;;;;5027228;28;20197;-63
2023/05/21 09:59:37;;;;;;;8.07;7.17;;;19.40;99.90;;;;;;5028027;28;20258;-62
2023/05/21 10:02:36;;;;;;;12.17;8.10;;;19.20;99.90;;;;;;5039032;28;20253;-61
2023/05/21 10:05:07;;;;;;;8.27;6.47;;;19.40;99.90;;;;;;5025960;28;20227;-61
2023/05/21 10:07:35;;;;;;;7.90;7.00;;;19.80;99.90;;;;;;5028480;28;20202;-62
2023/05/21 10:10:04;;;;;;;8.97;7.53;;;19.80;99.90;;;;;;5029416;28;20227;-62
2023/05/21 10:12:32;;;;;;;8.63;7.73;;;20.10;87.70;;;;;;5026121;28;21666;-62
2023/05/21 10:15:02;;;;;;;9.73;7.63;;;19.90;1.00;;;;;;5025041;28;20556;-61
2023/05/21 10:17:30;;;;;;;9.23;7.67;;;19.90;1.70;;;;;;5027464;28;20206;-62
2023/05/21 10:20:00;;;;;;;9.50;7.90;;;20.00;69.90;;;;;;5028763;28;20243;-61
2023/05/21 10:22:27;;;;;;;8.37;7.03;;;20.40;99.90;;;;;;5033525;28;20210;-62
2023/05/21 10:24:55;;;;;;;8.70;7.23;;;20.40;99.90;;;;;;5030048;28;20223;-61
2023/05/21 10:27:22;;;;;;;7.97;7.03;;;20.30;99.90;;;;;;5028895;28;20214;-62
2023/05/21 10:29:52;;;;;;;9.10;7.27;;;20.50;1.00;;;;;;5028110;28;20242;-61
2023/05/21 10:32:21;;;;;;;8.67;7.77;;;20.40;99.90;;;;;;5027110;28;20220;-61
2023/05/21 10:34:51;;;;;;;11.23;8.00;;;20.30;99.90;;;;;;5026055;28;20217;-61
2023/05/21 10:37:19;;;;;;;8.80;7.17;;;20.60;67.20;;;;;;5033068;28;21469;-62
2023/05/21 10:39:47;;;;;;;10.07;7.40;;;20.90;1.00;;;;;;5035582;28;20313;-62
2023/05/21 10:42:30;;;;;;;12.87;7.63;;;21.00;99.90;;;;;;5023057;28;20215;-62
2023/05/21 10:45:00;;;;;;;7.87;7.07;;;20.80;99.90;;;;;;5021541;28;20211;-62
2023/05/21 10:47:45;;;;;;;9.50;7.57;;;20.70;99.90;;;;;;5020700;28;20207;-62
2023/05/21 10:50:37;;;;;;;9.23;8.20;;;20.50;1.00;;;;;;5034641;28;20263;-61
2023/05/21 10:53:23;;;;;;;9.60;7.23;;;20.60;1.00;;;;;;5050485;28;20543;-62
2023/05/21 10:56:08;;;;;;;8.77;7.83;;;21.30;99.90;;;;;;5050790;28;20200;-62
2023/05/21 10:59:05;;;;;;;8.40;7.17;;;21.10;99.90;;;;;;5032460;28;22239;-62
2023/05/21 11:01:36;;;;;;;9.17;7.87;;;21.70;99.90;;;;;;5049595;28;20219;-61
2023/05/21 11:04:04;;;;;;;9.30;7.20;;;21.70;99.90;;;;;;5034134;28;20227;-62
2023/05/21 11:06:32;;;;;;;10.43;8.20;;;21.80;99.90;;;;;;5034088;28;20241;-62
2023/05/21 11:09:12;;;;;;;12.53;9.17;;;22.00;99.90;;;;;;5038281;28;20646;-61
2023/05/21 11:11:50;;;;;;;11.53;8.90;;;21.80;99.90;;;;;;5035716;28;20191;-61
2023/05/21 11:14:31;;;;;;;12.57;8.50;;;21.70;99.90;;;;;;5038369;28;20194;-63
2023/05/21 11:16:59;;;;;;;11.43;8.00;;;22.00;99.90;;;;;;5038120;28;20235;-62
2023/05/21 11:19:42;;;;;;;9.63;8.53;;;21.90;99.90;;;;;;5040528;28;20227;-62
2023/05/21 11:22:26;;;;;;;10.30;8.73;;;22.00;99.90;;;;;;5040678;28;20693;-62
2023/05/21 11:24:54;;;;;;;10.57;8.70;;;22.10;99.90;;;;;;5038214;28;20280;-62
2023/05/21 11:27:41;;;;;;;9.90;8.20;;;21.60;99.90;;;;;;5040711;28;20200;-63
2023/05/21 11:30:18;;;;;;;9.53;8.43;;;21.50;99.90;;;;;;5037361;28;20216;-62
2023/05/21 11:33:09;;;;;;;11.70;9.77;;;21.70;99.90;;;;;;5038772;28;20334;-62
2023/05/21 11:36:02;;;;;;;11.50;9.00;;;22.10;99.90;;;;;;5037075;28;20200;-64
2023/05/21 11:38:32;;;;;;;11.30;9.33;;;22.60;99.90;;;;;;5042489;28;20192;-62
2023/05/21 11:41:03;;;;;;;10.97;9.03;;;22.60;99.90;;;;;;5035221;28;21144;-62
2023/05/21 11:43:30;;;;;;;10.57;9.13;;;22.70;99.90;;;;;;5038632;28;20287;-61
2023/05/21 11:45:57;;;;;;;10.40;9.20;;;23.10;99.90;;;;;;5036186;28;20210;-62
2023/05/21 11:48:25;;;;;;;11.13;8.77;;;23.10;99.90;;;;;;5038859;28;20215;-61
2023/05/21 11:50:56;;;;;;;9.10;8.20;;;23.70;99.90;;;;;;5038772;28;20248;-62
2023/05/21 11:53:23;;;;;;;11.37;8.60;;;23.90;99.90;;;;;;5034970;28;20580;-61
2023/05/21 11:55:56;;;;;;;10.90;9.50;;;23.10;99.90;;;;;;5038534;28;21010;-62
2023/05/21 11:58:23;;;;;;;10.97;9.13;;;23.20;99.90;;;;;;5038628;28;20553;-62
2023/05/21 12:00:50;;;;;;;10.53;9.43;;;23.60;99.90;;;;;;5040303;28;20255;-62
2023/05/21 12:03:18;;;;;;;11.57;9.43;;;23.70;99.90;;;;;;5022614;28;20726;-62
2023/05/21 12:05:49;;;;;;;11.70;8.93;;;23.20;99.90;;;;;;5036516;28;20222;-63
2023/05/21 12:08:26;;;;;;;11.73;10.17;;;23.10;99.90;;;;;;5044612;28;20274;-62
2023/05/21 12:10:57;;;;;;;10.30;9.20;;;23.10;99.90;;;;;;5029695;28;20247;-62
2023/05/21 12:13:25;;;;;;;11.40;10.07;;;23.10;99.90;;;;;;5026297;28;20197;-62
2023/05/21 12:15:55;;;;;;;12.90;9.57;;;22.90;99.90;;;;;;5017872;28;20321;-63
2023/05/21 12:18:22;;;;;;;10.70;9.13;;;23.40;99.90;;;;;;5027244;28;20239;-62
2023/05/21 12:20:51;;;;;;;10.90;9.80;;;23.80;99.90;;;;;;5021502;28;20796;-63
2023/05/21 12:23:24;;;;;;;11.77;9.17;;;24.10;99.90;;;;;;5042250;28;20225;-62
2023/05/21 12:25:52;;;;;;;11.87;9.67;;;24.10;99.90;;;;;;5048786;28;20204;-63
2023/05/21 12:28:23;;;;;;;15.20;10.83;;;24.20;99.90;;;;;;5063512;28;20644;-64
2023/05/21 12:30:52;;;;;;;11.80;9.77;;;23.40;99.90;;;;;;5060221;28;20217;-62
2023/05/21 12:33:19;;;;;;;13.60;9.60;;;23.30;99.90;;;;;;5048719;28;20221;-62
2023/05/21 12:35:50;;;;;;;10.77;9.67;;;22.90;99.90;;;;;;5062948;28;20596;-62
2023/05/21 12:38:17;;;;;;;10.37;9.27;;;23.20;99.90;;;;;;5046888;28;20241;-63
2023/05/21 12:40:44;;;;;;;12.67;9.50;;;23.40;99.90;;;;;;5043448;28;20224;-62
2023/05/21 12:43:11;;;;;;;11.87;9.10;;;23.30;99.90;;;;;;5071558;28;20681;-63
2023/05/21 12:45:39;;;;;;;13.33;9.33;;;23.70;99.90;;;;;;5078211;28;20203;-65
2023/05/21 12:48:06;;;;;;;12.47;8.93;;;23.60;99.90;;;;;;5071013;28;20213;-63
2023/05/21 12:50:37;;;;;;;9.73;8.73;;;24.00;99.90;;;;;;5054479;28;20229;-62
2023/05/21 12:53:09;;;;;;;9.57;8.57;;;23.70;99.90;;;;;;5053880;28;21118;-64
2023/05/21 12:55:36;;;;;;;9.23;8.30;;;24.00;99.90;;;;;;5055617;28;20239;-62